sensor_id;sensor_type;location;lat;lon;timestamp;pressure;altitude;pressure_sealevel;temperature
66795;BMP280;53698;52.738;4.752;2022-09-03T00:00:19;101360.69;;;18.91
66795;BMP280;53698;52.738;4.752;2022-09-03T00:03:15;101368.91;;;18.86
66795;BMP280;53698;52.738;4.752;2022-09-03T00:05:47;101359.09;;;18.85
66795;BMP280;53698;52.738;4.752;2022-09-03T00:08:37;101351.22;;;18.78
66795;BMP280;53698;52.738;4.752;2022-09-03T00:13:54;101358.75;;;18.58
66795;BMP280;53698;52.738;4.752;2022-09-03T00:16:25;101349.16;;;18.54
66795;BMP280;53698;52.738;4.752;2022-09-03T00:18:58;101351.34;;;18.50
66795;BMP280;53698;52.738;4.752;2022-09-03T00:21:56;101353.91;;;18.53
66795;BMP280;53698;52.738;4.752;2022-09-03T00:24:28;101353.56;;;18.46
66795;BMP280;53698;52.738;4.752;2022-09-03T00:26:59;101347.00;;;18.44
66795;BMP280;53698;52.738;4.752;2022-09-03T00:29:34;101349.69;;;18.38
66795;BMP280;53698;52.738;4.752;2022-09-03T00:32:14;101344.72;;;18.42
66795;BMP280;53698;52.738;4.752;2022-09-03T00:34:47;101348.75;;;18.41
66795;BMP280;53698;52.738;4.752;2022-09-03T00:37:13;101344.38;;;18.35
66795;BMP280;53698;52.738;4.752;2022-09-03T00:39:38;101353.38;;;18.30
66795;BMP280;53698;52.738;4.752;2022-09-03T00:47:25;101345.00;;;18.25
66795;BMP280;53698;52.738;4.752;2022-09-03T00:52:36;101359.50;;;18.20
66795;BMP280;53698;52.738;4.752;2022-09-03T00:55:15;101361.56;;;18.25
66795;BMP280;53698;52.738;4.752;2022-09-03T00:57:54;101352.03;;;18.26
66795;BMP280;53698;52.738;4.752;2022-09-03T01:00:22;101353.38;;;18.30
66795;BMP280;53698;52.738;4.752;2022-09-03T01:03:10;101357.56;;;18.26
66795;BMP280;53698;52.738;4.752;2022-09-03T01:06:01;101354.13;;;18.31
66795;BMP280;53698;52.738;4.752;2022-09-03T01:11:31;101359.09;;;18.27
66795;BMP280;53698;52.738;4.752;2022-09-03T01:16:54;101364.63;;;18.27
66795;BMP280;53698;52.738;4.752;2022-09-03T01:24:38;101364.72;;;18.18
66795;BMP280;53698;52.738;4.752;2022-09-03T01:30:08;101360.25;;;18.20
66795;BMP280;53698;52.738;4.752;2022-09-03T01:32:52;101357.97;;;18.19
66795;BMP280;53698;52.738;4.752;2022-09-03T01:41:01;101345.13;;;18.16
66795;BMP280;53698;52.738;4.752;2022-09-03T01:44:18;101337.78;;;18.13
66795;BMP280;53698;52.738;4.752;2022-09-03T01:46:49;101346.38;;;18.15
66795;BMP280;53698;52.738;4.752;2022-09-03T01:51:45;101346.78;;;18.08
66795;BMP280;53698;52.738;4.752;2022-09-03T01:57:31;101352.50;;;18.05
66795;BMP280;53698;52.738;4.752;2022-09-03T02:00:10;101344.41;;;18.01
66795;BMP280;53698;52.738;4.752;2022-09-03T02:02:42;101348.81;;;17.94
66795;BMP280;53698;52.738;4.752;2022-09-03T02:07:44;101356.81;;;17.92
66795;BMP280;53698;52.738;4.752;2022-09-03T02:10:14;101353.00;;;17.89
66795;BMP280;53698;52.738;4.752;2022-09-03T02:12:44;101350.25;;;17.89
66795;BMP280;53698;52.738;4.752;2022-09-03T02:15:13;101346.34;;;17.82
66795;BMP280;53698;52.738;4.752;2022-09-03T02:17:41;101342.94;;;17.72
66795;BMP280;53698;52.738;4.752;2022-09-03T02:20:10;101345.88;;;17.69
66795;BMP280;53698;52.738;4.752;2022-09-03T02:22:37;101341.03;;;17.64
66795;BMP280;53698;52.738;4.752;2022-09-03T02:25:04;101345.91;;;17.55
66795;BMP280;53698;52.738;4.752;2022-09-03T02:27:30;101345.72;;;17.58
66795;BMP280;53698;52.738;4.752;2022-09-03T02:29:56;101344.00;;;17.61
66795;BMP280;53698;52.738;4.752;2022-09-03T02:32:22;101341.44;;;17.57
66795;BMP280;53698;52.738;4.752;2022-09-03T02:34:48;101342.09;;;17.52
66795;BMP280;53698;52.738;4.752;2022-09-03T02:37:15;101340.84;;;17.53
66795;BMP280;53698;52.738;4.752;2022-09-03T02:39:40;101340.09;;;17.53
66795;BMP280;53698;52.738;4.752;2022-09-03T02:42:06;101342.84;;;17.53
66795;BMP280;53698;52.738;4.752;2022-09-03T02:44:36;101335.22;;;17.48
66795;BMP280;53698;52.738;4.752;2022-09-03T02:47:05;101339.06;;;17.50
66795;BMP280;53698;52.738;4.752;2022-09-03T02:49:31;101329.44;;;17.46
66795;BMP280;53698;52.738;4.752;2022-09-03T02:52:04;101340.22;;;17.44
66795;BMP280;53698;52.738;4.752;2022-09-03T02:54:31;101340.56;;;17.37
66795;BMP280;53698;52.738;4.752;2022-09-03T02:57:00;101336.50;;;17.33
66795;BMP280;53698;52.738;4.752;2022-09-03T02:59:26;101341.72;;;17.31
66795;BMP280;53698;52.738;4.752;2022-09-03T03:01:54;101338.38;;;17.27
66795;BMP280;53698;52.738;4.752;2022-09-03T03:04:20;101339.16;;;17.28
66795;BMP280;53698;52.738;4.752;2022-09-03T03:06:46;101335.34;;;17.25
66795;BMP280;53698;52.738;4.752;2022-09-03T03:09:11;101336.13;;;17.26
66795;BMP280;53698;52.738;4.752;2022-09-03T03:11:36;101327.28;;;17.22
66795;BMP280;53698;52.738;4.752;2022-09-03T03:14:04;101329.94;;;17.16
66795;BMP280;53698;52.738;4.752;2022-09-03T03:16:29;101333.16;;;17.15
66795;BMP280;53698;52.738;4.752;2022-09-03T03:18:55;101325.81;;;17.12
66795;BMP280;53698;52.738;4.752;2022-09-03T03:21:21;101335.06;;;17.09
66795;BMP280;53698;52.738;4.752;2022-09-03T03:23:46;101338.88;;;17.12
66795;BMP280;53698;52.738;4.752;2022-09-03T03:26:14;101336.78;;;17.07
66795;BMP280;53698;52.738;4.752;2022-09-03T03:28:41;101342.69;;;17.14
66795;BMP280;53698;52.738;4.752;2022-09-03T03:31:12;101333.44;;;17.17
66795;BMP280;53698;52.738;4.752;2022-09-03T03:33:39;101333.44;;;17.17
66795;BMP280;53698;52.738;4.752;2022-09-03T03:36:06;101335.94;;;17.15
66795;BMP280;53698;52.738;4.752;2022-09-03T03:38:32;101335.81;;;17.10
66795;BMP280;53698;52.738;4.752;2022-09-03T03:40:57;101338.88;;;17.12
66795;BMP280;53698;52.738;4.752;2022-09-03T03:43:22;101332.41;;;17.15
66795;BMP280;53698;52.738;4.752;2022-09-03T03:45:57;101335.06;;;17.09
66795;BMP280;53698;52.738;4.752;2022-09-03T03:48:26;101329.25;;;17.07
66795;BMP280;53698;52.738;4.752;2022-09-03T03:50:52;101332.03;;;17.07
66795;BMP280;53698;52.738;4.752;2022-09-03T03:53:17;101334.97;;;17.04
66795;BMP280;53698;52.738;4.752;2022-09-03T03:55:43;101334.84;;;16.98
66795;BMP280;53698;52.738;4.752;2022-09-03T03:58:08;101342.84;;;16.97
66795;BMP280;53698;52.738;4.752;2022-09-03T04:00:34;101338.84;;;16.98
66795;BMP280;53698;52.738;4.752;2022-09-03T04:03:01;101330.03;;;16.94
66795;BMP280;53698;52.738;4.752;2022-09-03T04:05:26;101328.69;;;16.89
66795;BMP280;53698;52.738;4.752;2022-09-03T04:07:52;101320.56;;;16.86
66795;BMP280;53698;52.738;4.752;2022-09-03T04:10:17;101327.94;;;16.80
66795;BMP280;53698;52.738;4.752;2022-09-03T04:12:42;101332.59;;;16.74
66795;BMP280;53698;52.738;4.752;2022-09-03T04:15:08;101336.59;;;16.73
66795;BMP280;53698;52.738;4.752;2022-09-03T04:17:33;101335.53;;;16.71
66795;BMP280;53698;52.738;4.752;2022-09-03T04:19:58;101331.75;;;16.68
66795;BMP280;53698;52.738;4.752;2022-09-03T04:22:24;101327.47;;;16.67
66795;BMP280;53698;52.738;4.752;2022-09-03T04:24:49;101328.88;;;16.63
66795;BMP280;53698;52.738;4.752;2022-09-03T04:27:14;101327.16;;;16.65
66795;BMP280;53698;52.738;4.752;2022-09-03T04:29:40;101326.75;;;16.58
66795;BMP280;53698;52.738;4.752;2022-09-03T04:32:05;101336.28;;;16.57
66795;BMP280;53698;52.738;4.752;2022-09-03T04:34:49;101333.88;;;16.50
66795;BMP280;53698;52.738;4.752;2022-09-03T04:37:14;101334.34;;;16.49
66795;BMP280;53698;52.738;4.752;2022-09-03T04:39:43;101324.53;;;16.48
66795;BMP280;53698;52.738;4.752;2022-09-03T04:42:09;101328.38;;;16.50
66795;BMP280;53698;52.738;4.752;2022-09-03T04:44:34;101321.78;;;16.48
66795;BMP280;53698;52.738;4.752;2022-09-03T04:47:03;101332.03;;;16.47
66795;BMP280;53698;52.738;4.752;2022-09-03T04:49:29;101324.72;;;16.45
66795;BMP280;53698;52.738;4.752;2022-09-03T04:51:55;101325.81;;;16.47
66795;BMP280;53698;52.738;4.752;2022-09-03T04:54:20;101334.34;;;16.49
66795;BMP280;53698;52.738;4.752;2022-09-03T04:56:45;101331.31;;;16.47
66795;BMP280;53698;52.738;4.752;2022-09-03T04:59:11;101327.31;;;16.48
66795;BMP280;53698;52.738;4.752;2022-09-03T05:01:38;101321.50;;;16.46
66795;BMP280;53698;52.738;4.752;2022-09-03T05:04:05;101331.59;;;16.49
66795;BMP280;53698;52.738;4.752;2022-09-03T05:06:31;101323.59;;;16.51
66795;BMP280;53698;52.738;4.752;2022-09-03T05:08:58;101325.13;;;16.52
66795;BMP280;53698;52.738;4.752;2022-09-03T05:11:25;101329.69;;;16.55
66795;BMP280;53698;52.738;4.752;2022-09-03T05:13:53;101329.88;;;16.51
66795;BMP280;53698;52.738;4.752;2022-09-03T05:16:19;101328.19;;;16.54
66795;BMP280;53698;52.738;4.752;2022-09-03T05:18:45;101326.75;;;16.58
66795;BMP280;53698;52.738;4.752;2022-09-03T05:21:16;101325.53;;;16.59
66795;BMP280;53698;52.738;4.752;2022-09-03T05:23:46;101320.50;;;16.58
66795;BMP280;53698;52.738;4.752;2022-09-03T05:26:14;101324.78;;;16.59
66795;BMP280;53698;52.738;4.752;2022-09-03T05:28:41;101329.81;;;16.60
66795;BMP280;53698;52.738;4.752;2022-09-03T05:31:18;101328.41;;;16.64
66795;BMP280;53698;52.738;4.752;2022-09-03T05:33:52;101331.16;;;16.64
66795;BMP280;53698;52.738;4.752;2022-09-03T05:36:20;101330.22;;;16.67
66795;BMP280;53698;52.738;4.752;2022-09-03T05:38:47;101334.00;;;16.70
66795;BMP280;53698;52.738;4.752;2022-09-03T05:41:14;101334.41;;;16.77
66795;BMP280;53698;52.738;4.752;2022-09-03T05:43:39;101332.22;;;16.81
66795;BMP280;53698;52.738;4.752;2022-09-03T05:46:08;101331.09;;;16.87
66795;BMP280;53698;52.738;4.752;2022-09-03T05:48:35;101335.03;;;16.95
66795;BMP280;53698;52.738;4.752;2022-09-03T05:51:12;101333.91;;;17.01
66795;BMP280;53698;52.738;4.752;2022-09-03T05:53:41;101331.72;;;17.05
66795;BMP280;53698;52.738;4.752;2022-09-03T05:56:13;101333.63;;;17.14
66795;BMP280;53698;52.738;4.752;2022-09-03T05:58:40;101326.41;;;17.16
66795;BMP280;53698;52.738;4.752;2022-09-03T06:01:16;101329.72;;;17.20
66795;BMP280;53698;52.738;4.752;2022-09-03T06:03:44;101328.09;;;17.42
66795;BMP280;53698;52.738;4.752;2022-09-03T06:06:10;101329.19;;;17.44
66795;BMP280;53698;52.738;4.752;2022-09-03T06:08:38;101327.44;;;17.61
66795;BMP280;53698;52.738;4.752;2022-09-03T06:11:04;101327.03;;;17.67
66795;BMP280;53698;52.738;4.752;2022-09-03T06:13:30;101331.03;;;17.66
66795;BMP280;53698;52.738;4.752;2022-09-03T06:16:00;101326.28;;;17.81
66795;BMP280;53698;52.738;4.752;2022-09-03T06:18:26;101324.16;;;17.90
66795;BMP280;53698;52.738;4.752;2022-09-03T06:20:56;101330.81;;;17.98
66795;BMP280;53698;52.738;4.752;2022-09-03T06:23:22;101332.88;;;18.03
66795;BMP280;53698;52.738;4.752;2022-09-03T06:26:19;101329.72;;;18.10
66795;BMP280;53698;52.738;4.752;2022-09-03T06:28:44;101327.59;;;18.19
66795;BMP280;53698;52.738;4.752;2022-09-03T06:31:12;101336.44;;;18.42
66795;BMP280;53698;52.738;4.752;2022-09-03T06:33:39;101331.66;;;18.43
66795;BMP280;53698;52.738;4.752;2022-09-03T06:36:07;101323.66;;;18.64
66795;BMP280;53698;52.738;4.752;2022-09-03T06:38:34;101333.03;;;18.67
66795;BMP280;53698;52.738;4.752;2022-09-03T06:41:01;101341.94;;;19.01
66795;BMP280;53698;52.738;4.752;2022-09-03T06:43:29;101323.72;;;19.14
66795;BMP280;53698;52.738;4.752;2022-09-03T06:46:09;101326.53;;;19.19
66795;BMP280;53698;52.738;4.752;2022-09-03T06:48:36;101325.22;;;19.39
66795;BMP280;53698;52.738;4.752;2022-09-03T06:51:09;101312.03;;;19.29
66795;BMP280;53698;52.738;4.752;2022-09-03T06:53:38;101323.66;;;19.33
66795;BMP280;53698;52.738;4.752;2022-09-03T06:56:05;101318.44;;;19.40
66795;BMP280;53698;52.738;4.752;2022-09-03T06:58:37;101318.25;;;19.79
66795;BMP280;53698;52.738;4.752;2022-09-03T07:01:08;101322.06;;;19.82
66795;BMP280;53698;52.738;4.752;2022-09-03T07:03:35;101323.38;;;19.56
66795;BMP280;53698;52.738;4.752;2022-09-03T07:06:05;101325.72;;;19.68
66795;BMP280;53698;52.738;4.752;2022-09-03T07:08:32;101327.91;;;19.89
66795;BMP280;53698;52.738;4.752;2022-09-03T07:10:59;101327.69;;;19.98
66795;BMP280;53698;52.738;4.752;2022-09-03T07:13:27;101335.59;;;20.10
66795;BMP280;53698;52.738;4.752;2022-09-03T07:16:20;101330.22;;;20.31
66795;BMP280;53698;52.738;4.752;2022-09-03T07:18:47;101323.75;;;20.50
66795;BMP280;53698;52.738;4.752;2022-09-03T07:21:17;101335.97;;;20.85
66795;BMP280;53698;52.738;4.752;2022-09-03T07:23:44;101334.56;;;20.48
66795;BMP280;53698;52.738;4.752;2022-09-03T07:26:12;101340.84;;;20.43
66795;BMP280;53698;52.738;4.752;2022-09-03T07:28:39;101342.88;;;20.48
66795;BMP280;53698;52.738;4.752;2022-09-03T07:31:08;101337.66;;;20.61
66795;BMP280;53698;52.738;4.752;2022-09-03T07:33:36;101325.84;;;20.71
66795;BMP280;53698;52.738;4.752;2022-09-03T07:36:13;101329.91;;;20.75
66795;BMP280;53698;52.738;4.752;2022-09-03T07:38:40;101328.66;;;20.82
66795;BMP280;53698;52.738;4.752;2022-09-03T07:41:08;101328.22;;;21.10
66795;BMP280;53698;52.738;4.752;2022-09-03T07:43:39;101340.13;;;21.21
66795;BMP280;53698;52.738;4.752;2022-09-03T07:46:05;101329.78;;;21.43
66795;BMP280;53698;52.738;4.752;2022-09-03T07:48:31;101329.78;;;21.43
66795;BMP280;53698;52.738;4.752;2022-09-03T07:50:58;101348.41;;;21.10
66795;BMP280;53698;52.738;4.752;2022-09-03T07:53:25;101332.22;;;20.93
66795;BMP280;53698;52.738;4.752;2022-09-03T07:55:51;101338.56;;;21.09
66795;BMP280;53698;52.738;4.752;2022-09-03T07:58:17;101340.38;;;21.18
66795;BMP280;53698;52.738;4.752;2022-09-03T08:00:42;101338.09;;;21.22
66795;BMP280;53698;52.738;4.752;2022-09-03T08:03:08;101327.78;;;21.54
66795;BMP280;53698;52.738;4.752;2022-09-03T08:05:35;101330.53;;;21.59
66795;BMP280;53698;52.738;4.752;2022-09-03T08:08:05;101333.06;;;21.68
66795;BMP280;53698;52.738;4.752;2022-09-03T08:10:34;101340.41;;;21.87
66795;BMP280;53698;52.738;4.752;2022-09-03T08:13:00;101339.13;;;21.88
66795;BMP280;53698;52.738;4.752;2022-09-03T08:15:30;101337.84;;;22.00
66795;BMP280;53698;52.738;4.752;2022-09-03T08:17:56;101344.66;;;22.09
66795;BMP280;53698;52.738;4.752;2022-09-03T08:20:21;101336.81;;;22.19
66795;BMP280;53698;52.738;4.752;2022-09-03T08:22:47;101340.56;;;22.37
66795;BMP280;53698;52.738;4.752;2022-09-03T08:25:13;101338.56;;;22.22
66795;BMP280;53698;52.738;4.752;2022-09-03T08:27:39;101336.16;;;22.68
66795;BMP280;53698;52.738;4.752;2022-09-03T08:30:05;101341.81;;;22.42
66795;BMP280;53698;52.738;4.752;2022-09-03T08:32:34;101341.00;;;22.57
66795;BMP280;53698;52.738;4.752;2022-09-03T08:34:59;101337.13;;;22.81
66795;BMP280;53698;52.738;4.752;2022-09-03T08:37:24;101340.47;;;22.64
66795;BMP280;53698;52.738;4.752;2022-09-03T08:39:53;101346.03;;;22.64
66795;BMP280;53698;52.738;4.752;2022-09-03T08:42:27;101346.13;;;22.98
66795;BMP280;53698;52.738;4.752;2022-09-03T08:44:59;101338.22;;;23.07
66795;BMP280;53698;52.738;4.752;2022-09-03T08:47:53;101347.53;;;23.20
66795;BMP280;53698;52.738;4.752;2022-09-03T08:50:28;101345.34;;;23.42
66795;BMP280;53698;52.738;4.752;2022-09-03T08:53:02;101347.41;;;23.70
66795;BMP280;53698;52.738;4.752;2022-09-03T08:58:19;101338.78;;;23.68
66795;BMP280;53698;52.738;4.752;2022-09-03T09:00:47;101341.94;;;23.54
66795;BMP280;53698;52.738;4.752;2022-09-03T09:03:26;101343.06;;;23.46
66795;BMP280;53698;52.738;4.752;2022-09-03T09:11:49;101336.56;;;23.96
66795;BMP280;53698;52.738;4.752;2022-09-03T09:14:22;101343.09;;;23.69
66795;BMP280;53698;52.738;4.752;2022-09-03T09:17:13;101337.69;;;23.82
66795;BMP280;53698;52.738;4.752;2022-09-03T09:22:40;101343.53;;;24.07
66795;BMP280;53698;52.738;4.752;2022-09-03T09:25:20;101337.00;;;24.46
66795;BMP280;53698;52.738;4.752;2022-09-03T09:28:51;101336.66;;;24.55
66795;BMP280;53698;52.738;4.752;2022-09-03T09:30:54;101330.47;;;24.20
66795;BMP280;53698;52.738;4.752;2022-09-03T09:33:21;101337.97;;;24.54
66795;BMP280;53698;52.738;4.752;2022-09-03T09:35:48;101332.41;;;24.48
66795;BMP280;53698;52.738;4.752;2022-09-03T09:38:13;101338.63;;;24.60
66795;BMP280;53698;52.738;4.752;2022-09-03T09:40:42;101336.03;;;24.85
66795;BMP280;53698;52.738;4.752;2022-09-03T09:45:42;101322.31;;;24.87
66795;BMP280;53698;52.738;4.752;2022-09-03T09:48:31;101322.56;;;24.83
66795;BMP280;53698;52.738;4.752;2022-09-03T09:51:08;101326.88;;;24.84
66795;BMP280;53698;52.738;4.752;2022-09-03T09:53:34;101333.69;;;25.07
66795;BMP280;53698;52.738;4.752;2022-09-03T09:56:00;101319.22;;;24.90
66795;BMP280;53698;52.738;4.752;2022-09-03T09:58:29;101317.91;;;24.91
66795;BMP280;53698;52.738;4.752;2022-09-03T10:03:30;101322.31;;;25.23
66795;BMP280;53698;52.738;4.752;2022-09-03T10:06:06;101324.50;;;24.76
66795;BMP280;53698;52.738;4.752;2022-09-03T10:08:51;101314.75;;;25.00
66795;BMP280;53698;52.738;4.752;2022-09-03T10:11:19;101317.56;;;25.49
66795;BMP280;53698;52.738;4.752;2022-09-03T10:13:47;101323.78;;;25.24
66795;BMP280;53698;52.738;4.752;2022-09-03T10:16:34;101315.78;;;25.33
66795;BMP280;53698;52.738;4.752;2022-09-03T10:19:17;101314.50;;;25.34
66795;BMP280;53698;52.738;4.752;2022-09-03T10:21:54;101316.75;;;25.35
66795;BMP280;53698;52.738;4.752;2022-09-03T10:24:39;101312.66;;;25.54
66795;BMP280;53698;52.738;4.752;2022-09-03T10:27:09;101318.31;;;25.18
66795;BMP280;53698;52.738;4.752;2022-09-03T10:29:37;101309.09;;;25.54
66795;BMP280;53698;52.738;4.752;2022-09-03T10:32:21;101309.66;;;25.65
66795;BMP280;53698;52.738;4.752;2022-09-03T10:35:09;101307.47;;;25.89
66795;BMP280;53698;52.738;4.752;2022-09-03T10:40:39;101319.50;;;25.53
66795;BMP280;53698;52.738;4.752;2022-09-03T10:43:22;101304.47;;;26.00
66795;BMP280;53698;52.738;4.752;2022-09-03T10:46:02;101303.31;;;25.77
66795;BMP280;53698;52.738;4.752;2022-09-03T10:51:19;101312.78;;;26.18
66795;BMP280;53698;52.738;4.752;2022-09-03T10:56:31;101312.47;;;26.34
66795;BMP280;53698;52.738;4.752;2022-09-03T11:01:59;101313.03;;;26.45
66795;BMP280;53698;52.738;4.752;2022-09-03T11:07:18;101307.06;;;26.61
66795;BMP280;53698;52.738;4.752;2022-09-03T11:09:55;101306.63;;;26.32
66795;BMP280;53698;52.738;4.752;2022-09-03T11:12:28;101317.16;;;26.38
66795;BMP280;53698;52.738;4.752;2022-09-03T11:15:05;101317.41;;;26.66
66795;BMP280;53698;52.738;4.752;2022-09-03T11:17:39;101310.16;;;26.83
66795;BMP280;53698;52.738;4.752;2022-09-03T11:20:22;101308.91;;;27.16
66795;BMP280;53698;52.738;4.752;2022-09-03T11:22:50;101305.59;;;27.05
66795;BMP280;53698;52.738;4.752;2022-09-03T11:25:19;101304.25;;;27.19
66795;BMP280;53698;52.738;4.752;2022-09-03T11:27:55;101309.84;;;27.19
66795;BMP280;53698;52.738;4.752;2022-09-03T11:33:23;101304.56;;;27.88
66795;BMP280;53698;52.738;4.752;2022-09-03T11:35:59;101297.19;;;28.25
66795;BMP280;53698;52.738;4.752;2022-09-03T11:38:28;101286.84;;;28.47
66795;BMP280;53698;52.738;4.752;2022-09-03T11:41:23;101294.69;;;28.83
66795;BMP280;53698;52.738;4.752;2022-09-03T11:43:50;101291.50;;;28.79
66795;BMP280;53698;52.738;4.752;2022-09-03T11:48:49;101285.50;;;29.75
66795;BMP280;53698;52.738;4.752;2022-09-03T11:51:34;101288.69;;;30.15
66795;BMP280;53698;52.738;4.752;2022-09-03T11:56:32;101277.41;;;30.37
66795;BMP280;53698;52.738;4.752;2022-09-03T12:01:29;101283.41;;;31.18
66795;BMP280;53698;52.738;4.752;2022-09-03T12:04:04;101287.69;;;31.26
66795;BMP280;53698;52.738;4.752;2022-09-03T12:06:55;101278.78;;;31.13
66795;BMP280;53698;52.738;4.752;2022-09-03T12:12:17;101284.41;;;30.67
66795;BMP280;53698;52.738;4.752;2022-09-03T12:15:02;101280.75;;;31.27
66795;BMP280;53698;52.738;4.752;2022-09-03T12:23:31;101286.72;;;32.59
66795;BMP280;53698;52.738;4.752;2022-09-03T12:26:06;101289.47;;;32.50
66795;BMP280;53698;52.738;4.752;2022-09-03T12:28:36;101286.59;;;32.01
66795;BMP280;53698;52.738;4.752;2022-09-03T12:31:17;101281.56;;;32.82
66795;BMP280;53698;52.738;4.752;2022-09-03T12:33:48;101288.28;;;32.86
66795;BMP280;53698;52.738;4.752;2022-09-03T12:36:16;101288.13;;;32.68
66795;BMP280;53698;52.738;4.752;2022-09-03T12:38:41;101284.50;;;32.58
66795;BMP280;53698;52.738;4.752;2022-09-03T12:41:27;101281.19;;;32.78
66795;BMP280;53698;52.738;4.752;2022-09-03T12:43:57;101278.69;;;33.24
66795;BMP280;53698;52.738;4.752;2022-09-03T12:46:24;101284.34;;;32.98
66795;BMP280;53698;52.738;4.752;2022-09-03T12:49:01;101281.69;;;33.26
66795;BMP280;53698;52.738;4.752;2022-09-03T12:51:37;101275.66;;;33.13
66795;BMP280;53698;52.738;4.752;2022-09-03T12:54:05;101282.72;;;32.62
66795;BMP280;53698;52.738;4.752;2022-09-03T12:56:34;101286.22;;;32.54
66795;BMP280;53698;52.738;4.752;2022-09-03T12:59:07;101281.50;;;32.39
66795;BMP280;53698;52.738;4.752;2022-09-03T13:01:42;101285.13;;;32.66
66795;BMP280;53698;52.738;4.752;2022-09-03T13:04:13;101267.72;;;34.07
66795;BMP280;53698;52.738;4.752;2022-09-03T13:06:54;101277.69;;;33.99
66795;BMP280;53698;52.738;4.752;2022-09-03T13:09:25;101271.16;;;33.71
66795;BMP280;53698;52.738;4.752;2022-09-03T13:11:55;101270.81;;;33.22
66795;BMP280;53698;52.738;4.752;2022-09-03T13:14:20;101269.19;;;33.55
66795;BMP280;53698;52.738;4.752;2022-09-03T13:16:50;101272.94;;;33.31
66795;BMP280;53698;52.738;4.752;2022-09-03T13:22:18;101273.56;;;33.30
66795;BMP280;53698;52.738;4.752;2022-09-03T13:27:41;101266.38;;;34.17
66795;BMP280;53698;52.738;4.752;2022-09-03T13:30:31;101257.50;;;33.76
66795;BMP280;53698;52.738;4.752;2022-09-03T13:33:10;101257.78;;;34.71
66795;BMP280;53698;52.738;4.752;2022-09-03T13:40:51;101258.22;;;33.33
66795;BMP280;53698;52.738;4.752;2022-09-03T13:43:41;101254.50;;;34.37
66795;BMP280;53698;52.738;4.752;2022-09-03T13:46:15;101254.75;;;33.95
66795;BMP280;53698;52.738;4.752;2022-09-03T13:48:43;101265.88;;;33.49
66795;BMP280;53698;52.738;4.752;2022-09-03T13:56:35;101257.69;;;33.27
66795;BMP280;53698;52.738;4.752;2022-09-03T13:59:18;101252.34;;;33.92
66795;BMP280;53698;52.738;4.752;2022-09-03T14:02:19;101238.13;;;35.50
66795;BMP280;53698;52.738;4.752;2022-09-03T14:05:06;101248.19;;;35.03
66795;BMP280;53698;52.738;4.752;2022-09-03T14:10:21;101250.09;;;33.90
66795;BMP280;53698;52.738;4.752;2022-09-03T14:13:01;101247.34;;;33.74
66795;BMP280;53698;52.738;4.752;2022-09-03T14:15:43;101243.72;;;33.99
66795;BMP280;53698;52.738;4.752;2022-09-03T14:18:40;101245.47;;;33.41
66795;BMP280;53698;52.738;4.752;2022-09-03T14:21:37;101246.53;;;32.94
66795;BMP280;53698;52.738;4.752;2022-09-03T14:24:21;101253.22;;;33.24
66795;BMP280;53698;52.738;4.752;2022-09-03T14:26:53;101251.34;;;33.71
66795;BMP280;53698;52.738;4.752;2022-09-03T14:29:24;101238.44;;;33.16
66795;BMP280;53698;52.738;4.752;2022-09-03T14:32:22;101244.97;;;33.09
66795;BMP280;53698;52.738;4.752;2022-09-03T14:40:44;101242.94;;;33.80
66795;BMP280;53698;52.738;4.752;2022-09-03T14:54:28;101258.41;;;31.53
66795;BMP280;53698;52.738;4.752;2022-09-03T14:57:27;101264.88;;;30.16
66795;BMP280;53698;52.738;4.752;2022-09-03T15:07:54;101261.44;;;28.59
66795;BMP280;53698;52.738;4.752;2022-09-03T15:10:32;101273.28;;;28.73
66795;BMP280;53698;52.738;4.752;2022-09-03T15:13:11;101268.50;;;28.46
66795;BMP280;53698;52.738;4.752;2022-09-03T15:18:25;101273.19;;;28.51
66795;BMP280;53698;52.738;4.752;2022-09-03T15:21:11;101270.63;;;28.26
66795;BMP280;53698;52.738;4.752;2022-09-03T15:29:19;101280.13;;;27.95
66795;BMP280;53698;52.738;4.752;2022-09-03T15:32:09;101281.81;;;28.18
66795;BMP280;53698;52.738;4.752;2022-09-03T15:37:47;101275.44;;;28.18
66795;BMP280;53698;52.738;4.752;2022-09-03T15:40:24;101279.41;;;28.02
66795;BMP280;53698;52.738;4.752;2022-09-03T15:43:05;101279.25;;;27.80
66795;BMP280;53698;52.738;4.752;2022-09-03T15:45:50;101281.97;;;27.93
66795;BMP280;53698;52.738;4.752;2022-09-03T15:48:33;101278.56;;;27.87
66795;BMP280;53698;52.738;4.752;2022-09-03T15:51:17;101278.97;;;27.91
66795;BMP280;53698;52.738;4.752;2022-09-03T15:56:38;101287.06;;;27.74
66795;BMP280;53698;52.738;4.752;2022-09-03T15:59:23;101290.34;;;27.66
66795;BMP280;53698;52.738;4.752;2022-09-03T16:02:03;101282.88;;;27.68
66795;BMP280;53698;52.738;4.752;2022-09-03T16:05:15;101278.50;;;27.80
66795;BMP280;53698;52.738;4.752;2022-09-03T16:07:44;101284.91;;;27.60
66795;BMP280;53698;52.738;4.752;2022-09-03T16:10:14;101286.84;;;27.53
66795;BMP280;53698;52.738;4.752;2022-09-03T16:12:48;101285.34;;;27.52
66795;BMP280;53698;52.738;4.752;2022-09-03T16:15:19;101284.47;;;27.76
66795;BMP280;53698;52.738;4.752;2022-09-03T16:18:02;101285.81;;;27.83
66795;BMP280;53698;52.738;4.752;2022-09-03T16:20:45;101289.00;;;27.59
66795;BMP280;53698;52.738;4.752;2022-09-03T16:23:35;101278.09;;;27.56
66795;BMP280;53698;52.738;4.752;2022-09-03T16:26:24;101278.78;;;27.49
66795;BMP280;53698;52.738;4.752;2022-09-03T16:34:05;101282.06;;;27.21
66795;BMP280;53698;52.738;4.752;2022-09-03T16:37:00;101284.19;;;27.27
66795;BMP280;53698;52.738;4.752;2022-09-03T16:42:39;101272.06;;;27.32
66795;BMP280;53698;52.738;4.752;2022-09-03T16:45:23;101277.13;;;27.34
66795;BMP280;53698;52.738;4.752;2022-09-03T16:51:03;101281.03;;;27.31
66795;BMP280;53698;52.738;4.752;2022-09-03T16:56:47;101279.94;;;27.14
66795;BMP280;53698;52.738;4.752;2022-09-03T17:01:57;101285.28;;;27.44
66795;BMP280;53698;52.738;4.752;2022-09-03T17:13:36;101272.56;;;29.58
66795;BMP280;53698;52.738;4.752;2022-09-03T17:16:26;101278.56;;;28.76
66795;BMP280;53698;52.738;4.752;2022-09-03T17:21:47;101281.38;;;27.47